首页
METAR-TAF:

METAR-TAF

机场 :

Malcolm McKinnon Airport

布朗斯维克, 喬治亞, 美国

纬度: 31-09-06N, 经度: 081-23-29W, 海拔: 6米

当前天气观测

该预报发布于31分钟前的13:53 UTC
风速8节,风向
温度 14°C
湿度 94%
气压 1020 hPa
能見度: 14.5公里
多云层高于400英尺
阴天层高于3700英尺

METAR: KSSI 171353Z AUTO 36008KT 9SM BKN004 OVC037 14/13 A3012 RMK AO2 SLP201 T01390128

时间: 09:24 (14:24 UTC)

预报

该预报发布于16分钟前的14:08 UTC
预报有效从17日的 14点(UTC)到 18日的 12点(UTC)
风速8节,风向
能見度: 9.7公里
多云层高于400英尺
轻雾
从 17日的 1600点(UTC)
风速9节,风向北转东北
能見度: 10公里
多云层高于800英尺
从 17日的 1900点(UTC)
风速10节,风向东转东北
能見度: 10公里
多云层高于1500英尺
从 18日的 0000点(UTC)
风速5节,风向东北
能見度: 10公里
多云层高于900英尺
从 18日的 0400点(UTC)
风速3节,风向多变
能見度: 4.8公里
阴天层高于400英尺
轻雾
从 18日的 0800点(UTC)
风速3节,风向多变
能見度: 1.6公里
阴天层高于300英尺
轻雾

TAF: KSSI 171408Z 1714/1812 01008KT 6SM BR BKN004 FM171600 03009KT P6SM BKN008 FM171900 06010KT P6SM BKN015 FM180000 05005KT P6SM BKN009 FM180400 VRB03KT 3SM BR OVC004 FM180800 VRB03KT 1SM BR OVC003

超过4000个机场的气象观测和天气预报(METAR&TAF报告)。

可查询的气象台以黄色和红色小点在地图上表示。

将鼠标移到小点上方,可查看气象台名称。

然后点击查看天气观测和预报。

如需切换地图:点击带黑十字的绿色按钮放大地图;点击带横线的绿色按钮缩小地图;或者点击绿色箭头查看邻近地区的地图。


METAR-TAF: